sensor_id;sensor_type;location;lat;lon;timestamp;temperature;humidity
35668;DHT22;22158;59.280;17.806;2023-04-25T05:01:19;3.60;99.90
35668;DHT22;22158;59.280;17.806;2023-04-25T05:03:45;3.60;99.90
35668;DHT22;22158;59.280;17.806;2023-04-25T05:06:11;3.70;99.90
35668;DHT22;22158;59.280;17.806;2023-04-25T05:08:36;3.70;99.90
35668;DHT22;22158;59.280;17.806;2023-04-25T05:11:02;3.70;99.90
35668;DHT22;22158;59.280;17.806;2023-04-25T05:13:28;3.70;99.90
35668;DHT22;22158;59.280;17.806;2023-04-25T05:15:53;3.70;99.90
35668;DHT22;22158;59.280;17.806;2023-04-25T05:18:19;3.70;99.90
35668;DHT22;22158;59.280;17.806;2023-04-25T05:20:45;3.80;99.90
35668;DHT22;22158;59.280;17.806;2023-04-25T05:23:10;3.80;99.90
35668;DHT22;22158;59.280;17.806;2023-04-25T05:25:36;3.70;99.90
35668;DHT22;22158;59.280;17.806;2023-04-25T05:28:02;3.70;99.90
35668;DHT22;22158;59.280;17.806;2023-04-25T05:30:27;3.80;99.90
35668;DHT22;22158;59.280;17.806;2023-04-25T05:32:53;3.70;99.90
35668;DHT22;22158;59.280;17.806;2023-04-25T05:35:18;3.70;99.90
35668;DHT22;22158;59.280;17.806;2023-04-25T05:37:44;3.80;99.90
35668;DHT22;22158;59.280;17.806;2023-04-25T05:40:10;3.80;99.90
35668;DHT22;22158;59.280;17.806;2023-04-25T05:42:35;3.80;99.90
35668;DHT22;22158;59.280;17.806;2023-04-25T05:45:01;3.80;99.90
35668;DHT22;22158;59.280;17.806;2023-04-25T05:47:27;3.80;99.90
35668;DHT22;22158;59.280;17.806;2023-04-25T05:49:53;3.90;99.90
35668;DHT22;22158;59.280;17.806;2023-04-25T05:52:18;3.90;99.90
35668;DHT22;22158;59.280;17.806;2023-04-25T05:54:44;4.00;99.90
35668;DHT22;22158;59.280;17.806;2023-04-25T05:57:22;4.00;99.90
35668;DHT22;22158;59.280;17.806;2023-04-25T05:59:48;4.00;99.90
35668;DHT22;22158;59.280;17.806;2023-04-25T06:02:13;4.00;99.90
35668;DHT22;22158;59.280;17.806;2023-04-25T06:04:39;4.10;99.90
35668;DHT22;22158;59.280;17.806;2023-04-25T06:07:05;4.10;99.90
35668;DHT22;22158;59.280;17.806;2023-04-25T06:09:30;4.20;99.90
35668;DHT22;22158;59.280;17.806;2023-04-25T06:11:56;4.20;99.90
35668;DHT22;22158;59.280;17.806;2023-04-25T06:14:21;4.20;99.90
35668;DHT22;22158;59.280;17.806;2023-04-25T06:16:47;4.30;99.90
35668;DHT22;22158;59.280;17.806;2023-04-25T06:19:12;4.30;99.90
35668;DHT22;22158;59.280;17.806;2023-04-25T06:21:38;4.30;99.90
35668;DHT22;22158;59.280;17.806;2023-04-25T06:24:04;4.30;99.90
35668;DHT22;22158;59.280;17.806;2023-04-25T06:26:29;4.30;99.90
35668;DHT22;22158;59.280;17.806;2023-04-25T06:28:55;4.40;99.90
35668;DHT22;22158;59.280;17.806;2023-04-25T06:31:20;4.40;99.90
35668;DHT22;22158;59.280;17.806;2023-04-25T06:33:46;4.40;99.90
35668;DHT22;22158;59.280;17.806;2023-04-25T06:36:13;4.40;99.90
35668;DHT22;22158;59.280;17.806;2023-04-25T06:38:39;4.50;99.90
35668;DHT22;22158;59.280;17.806;2023-04-25T06:41:04;4.50;99.90
35668;DHT22;22158;59.280;17.806;2023-04-25T06:43:30;4.50;99.90
35668;DHT22;22158;59.280;17.806;2023-04-25T06:45:59;4.50;99.90
35668;DHT22;22158;59.280;17.806;2023-04-25T06:48:26;4.50;99.90
35668;DHT22;22158;59.280;17.806;2023-04-25T06:50:51;4.50;99.90
35668;DHT22;22158;59.280;17.806;2023-04-25T06:53:17;4.60;99.90
35668;DHT22;22158;59.280;17.806;2023-04-25T06:55:42;4.60;99.90
35668;DHT22;22158;59.280;17.806;2023-04-25T06:58:08;4.60;99.90
35668;DHT22;22158;59.280;17.806;2023-04-25T07:00:33;4.70;99.90
35668;DHT22;22158;59.280;17.806;2023-04-25T07:02:59;4.80;99.90
35668;DHT22;22158;59.280;17.806;2023-04-25T07:05:24;4.90;99.90
35668;DHT22;22158;59.280;17.806;2023-04-25T07:07:50;4.90;99.90
35668;DHT22;22158;59.280;17.806;2023-04-25T07:10:15;5.00;99.90
35668;DHT22;22158;59.280;17.806;2023-04-25T07:12:41;5.10;99.90
35668;DHT22;22158;59.280;17.806;2023-04-25T07:15:07;5.20;99.90
35668;DHT22;22158;59.280;17.806;2023-04-25T07:17:35;5.20;99.90
35668;DHT22;22158;59.280;17.806;2023-04-25T07:20:00;5.30;99.90
35668;DHT22;22158;59.280;17.806;2023-04-25T07:22:26;5.30;99.90
35668;DHT22;22158;59.280;17.806;2023-04-25T07:24:52;5.40;99.90
35668;DHT22;22158;59.280;17.806;2023-04-25T07:27:18;5.40;99.90
35668;DHT22;22158;59.280;17.806;2023-04-25T07:29:45;5.50;99.90
35668;DHT22;22158;59.280;17.806;2023-04-25T07:32:10;5.50;99.90
35668;DHT22;22158;59.280;17.806;2023-04-25T07:34:37;5.50;99.90
35668;DHT22;22158;59.280;17.806;2023-04-25T07:37:04;5.50;99.90
35668;DHT22;22158;59.280;17.806;2023-04-25T07:39:30;5.50;99.90
35668;DHT22;22158;59.280;17.806;2023-04-25T07:41:56;5.50;99.90
35668;DHT22;22158;59.280;17.806;2023-04-25T07:44:24;5.60;99.90
35668;DHT22;22158;59.280;17.806;2023-04-25T07:46:49;5.60;99.90
35668;DHT22;22158;59.280;17.806;2023-04-25T07:49:15;5.70;99.90
35668;DHT22;22158;59.280;17.806;2023-04-25T07:51:41;5.70;99.90
35668;DHT22;22158;59.280;17.806;2023-04-25T07:54:12;5.80;99.90
35668;DHT22;22158;59.280;17.806;2023-04-25T07:56:37;5.80;99.90
35668;DHT22;22158;59.280;17.806;2023-04-25T07:59:03;5.80;99.90
35668;DHT22;22158;59.280;17.806;2023-04-25T08:01:28;5.90;99.90
35668;DHT22;22158;59.280;17.806;2023-04-25T08:03:54;5.90;99.90
35668;DHT22;22158;59.280;17.806;2023-04-25T08:06:19;6.00;99.90
35668;DHT22;22158;59.280;17.806;2023-04-25T08:08:45;6.00;99.90
35668;DHT22;22158;59.280;17.806;2023-04-25T08:11:11;6.00;99.90
35668;DHT22;22158;59.280;17.806;2023-04-25T08:13:37;6.00;99.90
35668;DHT22;22158;59.280;17.806;2023-04-25T08:16:02;6.00;99.90
35668;DHT22;22158;59.280;17.806;2023-04-25T08:18:28;6.20;99.90
35668;DHT22;22158;59.280;17.806;2023-04-25T08:20:53;6.20;99.90
35668;DHT22;22158;59.280;17.806;2023-04-25T08:23:19;6.30;99.90
35668;DHT22;22158;59.280;17.806;2023-04-25T08:25:45;6.40;99.90
35668;DHT22;22158;59.280;17.806;2023-04-25T08:28:10;6.40;99.90
35668;DHT22;22158;59.280;17.806;2023-04-25T08:30:36;6.40;99.90
35668;DHT22;22158;59.280;17.806;2023-04-25T08:33:02;6.30;99.90
35668;DHT22;22158;59.280;17.806;2023-04-25T08:35:28;6.30;99.90
35668;DHT22;22158;59.280;17.806;2023-04-25T08:37:54;6.40;99.90
35668;DHT22;22158;59.280;17.806;2023-04-25T08:40:22;6.40;99.90
35668;DHT22;22158;59.280;17.806;2023-04-25T08:42:53;6.50;99.90
35668;DHT22;22158;59.280;17.806;2023-04-25T08:45:19;6.50;99.90
35668;DHT22;22158;59.280;17.806;2023-04-25T08:47:45;6.60;99.90
35668;DHT22;22158;59.280;17.806;2023-04-25T08:50:14;6.60;99.90
35668;DHT22;22158;59.280;17.806;2023-04-25T08:52:47;6.60;99.90
35668;DHT22;22158;59.280;17.806;2023-04-25T08:55:13;6.60;99.90
35668;DHT22;22158;59.280;17.806;2023-04-25T08:57:41;6.70;99.90
35668;DHT22;22158;59.280;17.806;2023-04-25T09:00:09;6.60;99.90
35668;DHT22;22158;59.280;17.806;2023-04-25T09:02:35;6.60;99.90
35668;DHT22;22158;59.280;17.806;2023-04-25T09:05:02;6.70;99.90
35668;DHT22;22158;59.280;17.806;2023-04-25T09:07:29;6.70;99.90
35668;DHT22;22158;59.280;17.806;2023-04-25T09:09:55;6.80;99.90
35668;DHT22;22158;59.280;17.806;2023-04-25T09:12:21;6.90;99.90
35668;DHT22;22158;59.280;17.806;2023-04-25T09:17:32;7.10;99.90
35668;DHT22;22158;59.280;17.806;2023-04-25T09:20:12;7.20;99.90
35668;DHT22;22158;59.280;17.806;2023-04-25T09:22:38;7.30;99.90
35668;DHT22;22158;59.280;17.806;2023-04-25T09:25:11;7.30;99.90
35668;DHT22;22158;59.280;17.806;2023-04-25T09:27:49;7.40;99.90
35668;DHT22;22158;59.280;17.806;2023-04-25T09:30:16;7.40;99.90
35668;DHT22;22158;59.280;17.806;2023-04-25T09:32:43;7.40;99.90
35668;DHT22;22158;59.280;17.806;2023-04-25T09:35:09;7.50;99.90
35668;DHT22;22158;59.280;17.806;2023-04-25T09:37:35;7.60;99.90
35668;DHT22;22158;59.280;17.806;2023-04-25T09:40:04;7.70;99.90
35668;DHT22;22158;59.280;17.806;2023-04-25T09:42:31;7.70;99.90
35668;DHT22;22158;59.280;17.806;2023-04-25T09:45:00;7.90;99.90
35668;DHT22;22158;59.280;17.806;2023-04-25T09:47:29;7.90;99.90
35668;DHT22;22158;59.280;17.806;2023-04-25T09:49:55;8.10;99.90
35668;DHT22;22158;59.280;17.806;2023-04-25T09:52:22;8.20;99.90
35668;DHT22;22158;59.280;17.806;2023-04-25T09:54:49;8.30;99.90
35668;DHT22;22158;59.280;17.806;2023-04-25T09:57:24;8.40;99.90
35668;DHT22;22158;59.280;17.806;2023-04-25T09:59:51;8.40;99.90
35668;DHT22;22158;59.280;17.806;2023-04-25T10:02:19;8.30;99.90
35668;DHT22;22158;59.280;17.806;2023-04-25T10:04:49;8.20;99.90
35668;DHT22;22158;59.280;17.806;2023-04-25T10:07:16;8.10;99.90
35668;DHT22;22158;59.280;17.806;2023-04-25T10:09:44;7.90;99.90
35668;DHT22;22158;59.280;17.806;2023-04-25T10:12:12;7.90;99.90
35668;DHT22;22158;59.280;17.806;2023-04-25T10:14:38;8.00;99.90
35668;DHT22;22158;59.280;17.806;2023-04-25T10:17:05;8.10;99.90
35668;DHT22;22158;59.280;17.806;2023-04-25T10:19:32;8.30;99.90
35668;DHT22;22158;59.280;17.806;2023-04-25T10:22:08;8.10;99.90
35668;DHT22;22158;59.280;17.806;2023-04-25T10:24:35;8.20;99.90
35668;DHT22;22158;59.280;17.806;2023-04-25T10:27:02;8.30;99.90
35668;DHT22;22158;59.280;17.806;2023-04-25T10:29:28;8.30;99.90
35668;DHT22;22158;59.280;17.806;2023-04-25T10:31:54;8.40;99.90
35668;DHT22;22158;59.280;17.806;2023-04-25T10:34:24;8.50;99.90
35668;DHT22;22158;59.280;17.806;2023-04-25T10:36:52;8.50;99.90
35668;DHT22;22158;59.280;17.806;2023-04-25T10:39:23;8.50;99.90
35668;DHT22;22158;59.280;17.806;2023-04-25T10:41:56;8.70;99.90
35668;DHT22;22158;59.280;17.806;2023-04-25T10:44:26;8.80;99.90
35668;DHT22;22158;59.280;17.806;2023-04-25T10:46:52;8.90;99.90
35668;DHT22;22158;59.280;17.806;2023-04-25T10:49:37;8.70;99.90
35668;DHT22;22158;59.280;17.806;2023-04-25T10:54:47;9.00;99.90
35668;DHT22;22158;59.280;17.806;2023-04-25T10:57:29;9.10;99.90
35668;DHT22;22158;59.280;17.806;2023-04-25T11:00:16;9.10;99.90
35668;DHT22;22158;59.280;17.806;2023-04-25T11:07:54;9.10;99.90
35668;DHT22;22158;59.280;17.806;2023-04-25T11:10:28;9.10;99.90
35668;DHT22;22158;59.280;17.806;2023-04-25T11:12:55;9.20;99.90
35668;DHT22;22158;59.280;17.806;2023-04-25T11:15:21;9.10;99.90
35668;DHT22;22158;59.280;17.806;2023-04-25T11:17:46;9.10;99.90
35668;DHT22;22158;59.280;17.806;2023-04-25T11:20:13;9.10;99.90
35668;DHT22;22158;59.280;17.806;2023-04-25T11:22:39;9.10;99.90
35668;DHT22;22158;59.280;17.806;2023-04-25T11:25:09;9.10;99.90
35668;DHT22;22158;59.280;17.806;2023-04-25T11:27:38;8.90;99.90
35668;DHT22;22158;59.280;17.806;2023-04-25T11:30:13;9.00;99.90
35668;DHT22;22158;59.280;17.806;2023-04-25T11:32:41;9.00;99.90
35668;DHT22;22158;59.280;17.806;2023-04-25T11:35:07;9.00;99.90
35668;DHT22;22158;59.280;17.806;2023-04-25T11:37:33;9.00;99.90
35668;DHT22;22158;59.280;17.806;2023-04-25T11:40:00;9.00;99.90
35668;DHT22;22158;59.280;17.806;2023-04-25T11:42:25;9.10;99.90
35668;DHT22;22158;59.280;17.806;2023-04-25T11:44:51;9.00;99.90
35668;DHT22;22158;59.280;17.806;2023-04-25T11:47:17;8.90;99.90
35668;DHT22;22158;59.280;17.806;2023-04-25T11:49:43;8.90;99.90
35668;DHT22;22158;59.280;17.806;2023-04-25T11:52:08;9.00;99.90
35668;DHT22;22158;59.280;17.806;2023-04-25T11:54:37;9.00;99.90
35668;DHT22;22158;59.280;17.806;2023-04-25T11:57:04;9.10;99.90
35668;DHT22;22158;59.280;17.806;2023-04-25T11:59:30;9.00;99.90
35668;DHT22;22158;59.280;17.806;2023-04-25T12:01:55;9.10;99.90
35668;DHT22;22158;59.280;17.806;2023-04-25T12:04:24;9.00;99.90
35668;DHT22;22158;59.280;17.806;2023-04-25T12:06:54;9.00;99.90
35668;DHT22;22158;59.280;17.806;2023-04-25T12:09:27;9.10;99.90
35668;DHT22;22158;59.280;17.806;2023-04-25T12:11:54;9.20;99.90
35668;DHT22;22158;59.280;17.806;2023-04-25T12:14:28;9.20;99.90
35668;DHT22;22158;59.280;17.806;2023-04-25T12:16:58;9.30;99.90
35668;DHT22;22158;59.280;17.806;2023-04-25T12:19:24;9.00;99.90
35668;DHT22;22158;59.280;17.806;2023-04-25T12:21:51;9.00;99.90
35668;DHT22;22158;59.280;17.806;2023-04-25T12:24:18;9.00;99.90
35668;DHT22;22158;59.280;17.806;2023-04-25T12:29:21;9.10;99.90
35668;DHT22;22158;59.280;17.806;2023-04-25T12:31:47;9.20;99.90
35668;DHT22;22158;59.280;17.806;2023-04-25T12:34:13;9.20;99.90
35668;DHT22;22158;59.280;17.806;2023-04-25T12:36:39;9.30;99.90
35668;DHT22;22158;59.280;17.806;2023-04-25T12:39:05;9.40;99.90
35668;DHT22;22158;59.280;17.806;2023-04-25T12:41:32;9.60;99.90
35668;DHT22;22158;59.280;17.806;2023-04-25T12:43:57;9.70;99.90
35668;DHT22;22158;59.280;17.806;2023-04-25T12:46:23;9.70;99.90
35668;DHT22;22158;59.280;17.806;2023-04-25T12:48:49;9.70;99.90
35668;DHT22;22158;59.280;17.806;2023-04-25T12:51:14;9.60;99.90
35668;DHT22;22158;59.280;17.806;2023-04-25T12:53:41;9.70;99.90
35668;DHT22;22158;59.280;17.806;2023-04-25T12:56:07;9.80;99.90
35668;DHT22;22158;59.280;17.806;2023-04-25T12:58:33;10.00;99.90
35668;DHT22;22158;59.280;17.806;2023-04-25T13:00:59;10.00;99.90
35668;DHT22;22158;59.280;17.806;2023-04-25T13:03:24;10.00;99.90
35668;DHT22;22158;59.280;17.806;2023-04-25T13:05:51;10.00;99.90
35668;DHT22;22158;59.280;17.806;2023-04-25T13:08:18;10.20;99.90
35668;DHT22;22158;59.280;17.806;2023-04-25T13:10:44;10.30;99.90
35668;DHT22;22158;59.280;17.806;2023-04-25T13:13:09;10.40;99.90
35668;DHT22;22158;59.280;17.806;2023-04-25T13:15:35;10.50;99.90
35668;DHT22;22158;59.280;17.806;2023-04-25T13:18:03;10.50;99.90
35668;DHT22;22158;59.280;17.806;2023-04-25T13:20:29;10.60;99.90
35668;DHT22;22158;59.280;17.806;2023-04-25T13:22:54;10.80;99.90
35668;DHT22;22158;59.280;17.806;2023-04-25T13:25:20;10.80;99.90
35668;DHT22;22158;59.280;17.806;2023-04-25T13:27:47;10.90;99.90
35668;DHT22;22158;59.280;17.806;2023-04-25T13:30:12;10.80;99.90
35668;DHT22;22158;59.280;17.806;2023-04-25T13:32:39;10.90;99.90
35668;DHT22;22158;59.280;17.806;2023-04-25T13:35:06;10.90;99.90
35668;DHT22;22158;59.280;17.806;2023-04-25T13:37:32;10.70;99.90
35668;DHT22;22158;59.280;17.806;2023-04-25T13:40:09;10.70;99.90
35668;DHT22;22158;59.280;17.806;2023-04-25T13:42:37;10.70;99.90
35668;DHT22;22158;59.280;17.806;2023-04-25T13:45:06;10.70;99.90
35668;DHT22;22158;59.280;17.806;2023-04-25T13:47:32;10.80;99.90
35668;DHT22;22158;59.280;17.806;2023-04-25T13:49:58;10.90;99.90
35668;DHT22;22158;59.280;17.806;2023-04-25T13:52:24;11.10;99.90
35668;DHT22;22158;59.280;17.806;2023-04-25T13:54:51;11.20;99.90
35668;DHT22;22158;59.280;17.806;2023-04-25T13:57:17;11.40;99.90
35668;DHT22;22158;59.280;17.806;2023-04-25T13:59:43;11.50;99.90
35668;DHT22;22158;59.280;17.806;2023-04-25T14:02:08;11.70;99.90
35668;DHT22;22158;59.280;17.806;2023-04-25T14:04:34;11.70;99.90
35668;DHT22;22158;59.280;17.806;2023-04-25T14:07:00;11.70;99.90
35668;DHT22;22158;59.280;17.806;2023-04-25T14:09:27;11.60;99.90
35668;DHT22;22158;59.280;17.806;2023-04-25T14:11:53;11.60;99.90
35668;DHT22;22158;59.280;17.806;2023-04-25T14:14:19;11.60;99.90
35668;DHT22;22158;59.280;17.806;2023-04-25T14:16:47;11.50;99.90
35668;DHT22;22158;59.280;17.806;2023-04-25T14:19:16;11.40;99.90
35668;DHT22;22158;59.280;17.806;2023-04-25T14:21:42;11.40;99.90
35668;DHT22;22158;59.280;17.806;2023-04-25T14:24:09;11.30;99.90
35668;DHT22;22158;59.280;17.806;2023-04-25T14:26:34;11.40;99.90
35668;DHT22;22158;59.280;17.806;2023-04-25T14:29:04;11.40;99.90
35668;DHT22;22158;59.280;17.806;2023-04-25T14:31:30;11.50;99.90
35668;DHT22;22158;59.280;17.806;2023-04-25T14:33:56;11.40;99.90
35668;DHT22;22158;59.280;17.806;2023-04-25T14:36:22;11.40;99.90
35668;DHT22;22158;59.280;17.806;2023-04-25T14:38:47;11.40;99.90
35668;DHT22;22158;59.280;17.806;2023-04-25T14:41:13;11.40;99.90
35668;DHT22;22158;59.280;17.806;2023-04-25T14:43:38;11.40;99.90
35668;DHT22;22158;59.280;17.806;2023-04-25T14:46:07;11.40;99.90
35668;DHT22;22158;59.280;17.806;2023-04-25T14:48:33;11.30;99.90
35668;DHT22;22158;59.280;17.806;2023-04-25T14:50:59;11.20;99.90
35668;DHT22;22158;59.280;17.806;2023-04-25T14:53:28;11.10;99.90
35668;DHT22;22158;59.280;17.806;2023-04-25T14:55:53;11.00;99.90
35668;DHT22;22158;59.280;17.806;2023-04-25T14:58:19;11.00;99.90
35668;DHT22;22158;59.280;17.806;2023-04-25T15:00:45;11.00;99.90
35668;DHT22;22158;59.280;17.806;2023-04-25T15:03:11;11.00;99.90
35668;DHT22;22158;59.280;17.806;2023-04-25T15:05:38;11.00;99.90
35668;DHT22;22158;59.280;17.806;2023-04-25T15:08:05;10.90;99.90
35668;DHT22;22158;59.280;17.806;2023-04-25T15:10:31;10.60;99.90
35668;DHT22;22158;59.280;17.806;2023-04-25T15:12:57;10.30;99.90
35668;DHT22;22158;59.280;17.806;2023-04-25T15:15:22;10.10;99.90
35668;DHT22;22158;59.280;17.806;2023-04-25T15:17:49;10.00;99.90
35668;DHT22;22158;59.280;17.806;2023-04-25T15:20:15;9.90;99.90
35668;DHT22;22158;59.280;17.806;2023-04-25T15:22:43;9.70;99.90
35668;DHT22;22158;59.280;17.806;2023-04-25T15:25:10;9.60;99.90
35668;DHT22;22158;59.280;17.806;2023-04-25T15:27:37;9.50;99.90
35668;DHT22;22158;59.280;17.806;2023-04-25T15:30:07;9.10;99.90
35668;DHT22;22158;59.280;17.806;2023-04-25T15:32:33;9.00;99.90
35668;DHT22;22158;59.280;17.806;2023-04-25T15:34:59;8.90;99.90
35668;DHT22;22158;59.280;17.806;2023-04-25T15:37:25;8.90;99.90
35668;DHT22;22158;59.280;17.806;2023-04-25T15:40:08;8.80;99.90
35668;DHT22;22158;59.280;17.806;2023-04-25T15:42:38;8.70;99.90
35668;DHT22;22158;59.280;17.806;2023-04-25T15:45:06;8.70;99.90
35668;DHT22;22158;59.280;17.806;2023-04-25T15:47:34;8.80;99.90
35668;DHT22;22158;59.280;17.806;2023-04-25T15:50:00;8.80;99.90
35668;DHT22;22158;59.280;17.806;2023-04-25T15:52:26;8.90;99.90
35668;DHT22;22158;59.280;17.806;2023-04-25T15:54:52;8.90;99.90
35668;DHT22;22158;59.280;17.806;2023-04-25T15:57:17;8.90;99.90
35668;DHT22;22158;59.280;17.806;2023-04-25T15:59:43;8.90;99.90
35668;DHT22;22158;59.280;17.806;2023-04-25T16:02:09;9.00;99.90
35668;DHT22;22158;59.280;17.806;2023-04-25T16:04:34;8.90;99.90
35668;DHT22;22158;59.280;17.806;2023-04-25T16:07:01;8.90;99.90
35668;DHT22;22158;59.280;17.806;2023-04-25T16:09:28;8.90;99.90
35668;DHT22;22158;59.280;17.806;2023-04-25T16:11:54;8.80;99.90
35668;DHT22;22158;59.280;17.806;2023-04-25T16:14:38;8.90;99.90
35668;DHT22;22158;59.280;17.806;2023-04-25T16:17:04;8.90;99.90
35668;DHT22;22158;59.280;17.806;2023-04-25T16:19:29;9.00;99.90
35668;DHT22;22158;59.280;17.806;2023-04-25T16:21:55;8.80;99.90
35668;DHT22;22158;59.280;17.806;2023-04-25T16:24:21;8.80;99.90
35668;DHT22;22158;59.280;17.806;2023-04-25T16:26:46;8.80;99.90
35668;DHT22;22158;59.280;17.806;2023-04-25T16:29:12;8.80;99.90
35668;DHT22;22158;59.280;17.806;2023-04-25T16:31:39;8.80;99.90
35668;DHT22;22158;59.280;17.806;2023-04-25T16:34:06;8.80;99.90
35668;DHT22;22158;59.280;17.806;2023-04-25T16:36:32;8.80;99.90
35668;DHT22;22158;59.280;17.806;2023-04-25T16:38:58;8.80;99.90
35668;DHT22;22158;59.280;17.806;2023-04-25T16:41:25;8.70;99.90
35668;DHT22;22158;59.280;17.806;2023-04-25T16:43:52;8.70;99.90
35668;DHT22;22158;59.280;17.806;2023-04-25T16:46:17;8.70;99.90
35668;DHT22;22158;59.280;17.806;2023-04-25T16:48:44;8.80;99.90
35668;DHT22;22158;59.280;17.806;2023-04-25T16:51:12;8.80;99.90
35668;DHT22;22158;59.280;17.806;2023-04-25T16:53:38;8.70;99.90
35668;DHT22;22158;59.280;17.806;2023-04-25T16:56:06;8.70;99.90
35668;DHT22;22158;59.280;17.806;2023-04-25T16:58:32;8.60;99.90
35668;DHT22;22158;59.280;17.806;2023-04-25T17:00:57;8.60;99.90
35668;DHT22;22158;59.280;17.806;2023-04-25T17:03:23;8.60;99.90
35668;DHT22;22158;59.280;17.806;2023-04-25T17:05:50;8.60;99.90
35668;DHT22;22158;59.280;17.806;2023-04-25T17:08:16;8.60;99.90
35668;DHT22;22158;59.280;17.806;2023-04-25T17:10:41;8.60;99.90
35668;DHT22;22158;59.280;17.806;2023-04-25T17:13:07;8.60;99.90
35668;DHT22;22158;59.280;17.806;2023-04-25T17:15:32;8.60;99.90
35668;DHT22;22158;59.280;17.806;2023-04-25T17:17:58;8.60;99.90
35668;DHT22;22158;59.280;17.806;2023-04-25T17:20:25;8.60;99.90
35668;DHT22;22158;59.280;17.806;2023-04-25T17:22:53;8.60;99.90
35668;DHT22;22158;59.280;17.806;2023-04-25T17:25:19;8.50;99.90
35668;DHT22;22158;59.280;17.806;2023-04-25T17:27:44;8.50;99.90
35668;DHT22;22158;59.280;17.806;2023-04-25T17:30:10;8.50;99.90
35668;DHT22;22158;59.280;17.806;2023-04-25T17:32:37;8.50;99.90
35668;DHT22;22158;59.280;17.806;2023-04-25T17:35:03;8.50;99.90
35668;DHT22;22158;59.280;17.806;2023-04-25T17:37:29;8.50;99.90
35668;DHT22;22158;59.280;17.806;2023-04-25T17:39:55;8.50;99.90
35668;DHT22;22158;59.280;17.806;2023-04-25T17:42:20;8.50;99.90
35668;DHT22;22158;59.280;17.806;2023-04-25T17:44:46;8.40;99.90
35668;DHT22;22158;59.280;17.806;2023-04-25T17:47:12;8.50;99.90
35668;DHT22;22158;59.280;17.806;2023-04-25T17:49:38;8.50;99.90
35668;DHT22;22158;59.280;17.806;2023-04-25T17:52:04;8.50;99.90
35668;DHT22;22158;59.280;17.806;2023-04-25T17:54:29;8.50;99.90
35668;DHT22;22158;59.280;17.806;2023-04-25T17:56:55;8.50;99.90
35668;DHT22;22158;59.280;17.806;2023-04-25T17:59:21;8.40;99.90
35668;DHT22;22158;59.280;17.806;2023-04-25T18:01:47;8.40;99.90
35668;DHT22;22158;59.280;17.806;2023-04-25T18:04:13;8.30;99.90
35668;DHT22;22158;59.280;17.806;2023-04-25T18:06:39;8.30;99.90
35668;DHT22;22158;59.280;17.806;2023-04-25T18:09:04;8.30;99.90
35668;DHT22;22158;59.280;17.806;2023-04-25T18:11:50;8.30;99.90
35668;DHT22;22158;59.280;17.806;2023-04-25T18:14:17;8.30;99.90
35668;DHT22;22158;59.280;17.806;2023-04-25T18:16:46;8.30;99.90
35668;DHT22;22158;59.280;17.806;2023-04-25T18:19:12;8.30;99.90
35668;DHT22;22158;59.280;17.806;2023-04-25T18:21:46;8.30;99.90
35668;DHT22;22158;59.280;17.806;2023-04-25T18:24:12;8.20;99.90
35668;DHT22;22158;59.280;17.806;2023-04-25T18:26:38;8.20;99.90
35668;DHT22;22158;59.280;17.806;2023-04-25T18:29:04;8.20;99.90
35668;DHT22;22158;59.280;17.806;2023-04-25T18:31:33;8.20;99.90
35668;DHT22;22158;59.280;17.806;2023-04-25T18:34:00;8.10;99.90
35668;DHT22;22158;59.280;17.806;2023-04-25T18:36:25;8.10;99.90
35668;DHT22;22158;59.280;17.806;2023-04-25T18:38:56;8.00;99.90
35668;DHT22;22158;59.280;17.806;2023-04-25T18:41:22;8.00;99.90
35668;DHT22;22158;59.280;17.806;2023-04-25T18:43:52;7.90;99.90
35668;DHT22;22158;59.280;17.806;2023-04-25T18:46:18;7.90;99.90
35668;DHT22;22158;59.280;17.806;2023-04-25T18:48:47;7.80;99.90
35668;DHT22;22158;59.280;17.806;2023-04-25T18:51:13;7.80;99.90
35668;DHT22;22158;59.280;17.806;2023-04-25T18:53:39;7.80;99.90
35668;DHT22;22158;59.280;17.806;2023-04-25T18:56:06;7.70;99.90
35668;DHT22;22158;59.280;17.806;2023-04-25T18:58:32;7.70;99.90
35668;DHT22;22158;59.280;17.806;2023-04-25T19:01:00;7.70;99.90
35668;DHT22;22158;59.280;17.806;2023-04-25T19:03:27;7.70;99.90
35668;DHT22;22158;59.280;17.806;2023-04-25T19:05:52;7.60;99.90
35668;DHT22;22158;59.280;17.806;2023-04-25T19:08:19;7.60;99.90
35668;DHT22;22158;59.280;17.806;2023-04-25T19:10:45;7.60;99.90
35668;DHT22;22158;59.280;17.806;2023-04-25T19:13:12;7.60;99.90
35668;DHT22;22158;59.280;17.806;2023-04-25T19:15:38;7.60;99.90
35668;DHT22;22158;59.280;17.806;2023-04-25T19:18:04;7.60;99.90
35668;DHT22;22158;59.280;17.806;2023-04-25T19:20:29;7.60;99.90
35668;DHT22;22158;59.280;17.806;2023-04-25T19:22:56;7.60;99.90
35668;DHT22;22158;59.280;17.806;2023-04-25T19:25:21;7.60;99.90
35668;DHT22;22158;59.280;17.806;2023-04-25T19:27:49;7.50;99.90
35668;DHT22;22158;59.280;17.806;2023-04-25T19:30:15;7.50;99.90
35668;DHT22;22158;59.280;17.806;2023-04-25T19:32:41;7.50;99.90
35668;DHT22;22158;59.280;17.806;2023-04-25T19:35:07;7.50;99.90
35668;DHT22;22158;59.280;17.806;2023-04-25T19:37:33;7.40;99.90
35668;DHT22;22158;59.280;17.806;2023-04-25T19:40:00;7.40;99.90
35668;DHT22;22158;59.280;17.806;2023-04-25T19:42:25;7.40;99.90
35668;DHT22;22158;59.280;17.806;2023-04-25T19:44:51;7.30;99.90
35668;DHT22;22158;59.280;17.806;2023-04-25T19:47:17;7.30;99.90
35668;DHT22;22158;59.280;17.806;2023-04-25T19:49:43;7.30;99.90
35668;DHT22;22158;59.280;17.806;2023-04-25T19:52:09;7.30;99.90
35668;DHT22;22158;59.280;17.806;2023-04-25T19:54:39;7.30;99.90
35668;DHT22;22158;59.280;17.806;2023-04-25T19:57:06;7.20;99.90
35668;DHT22;22158;59.280;17.806;2023-04-25T19:59:31;7.20;99.90
35668;DHT22;22158;59.280;17.806;2023-04-25T20:01:57;7.10;99.90
35668;DHT22;22158;59.280;17.806;2023-04-25T20:04:24;7.10;99.90
35668;DHT22;22158;59.280;17.806;2023-04-25T20:06:50;7.00;99.90
35668;DHT22;22158;59.280;17.806;2023-04-25T20:09:17;7.00;99.90
35668;DHT22;22158;59.280;17.806;2023-04-25T20:11:42;7.00;99.90
35668;DHT22;22158;59.280;17.806;2023-04-25T20:14:08;7.00;99.90
35668;DHT22;22158;59.280;17.806;2023-04-25T20:16:34;7.00;99.90
35668;DHT22;22158;59.280;17.806;2023-04-25T20:19:00;6.90;99.90
35668;DHT22;22158;59.280;17.806;2023-04-25T20:21:26;6.90;99.90
35668;DHT22;22158;59.280;17.806;2023-04-25T20:23:53;6.90;99.90
35668;DHT22;22158;59.280;17.806;2023-04-25T20:26:18;6.80;99.90
35668;DHT22;22158;59.280;17.806;2023-04-25T20:28:44;6.80;99.90
35668;DHT22;22158;59.280;17.806;2023-04-25T20:31:10;6.70;99.90
35668;DHT22;22158;59.280;17.806;2023-04-25T20:33:36;6.70;99.90
35668;DHT22;22158;59.280;17.806;2023-04-25T20:36:03;6.70;99.90
35668;DHT22;22158;59.280;17.806;2023-04-25T20:38:29;6.60;99.90